createdAt,value
2022-10-22T00:03:19.346Z,7.86
2022-10-22T00:07:21.190Z,7.86
2022-10-22T00:11:23.014Z,7.83
2022-10-22T00:15:24.895Z,7.85
2022-10-22T00:19:27.665Z,7.89
2022-10-22T00:23:29.605Z,7.94
2022-10-22T00:27:31.432Z,7.96
2022-10-22T00:31:33.320Z,7.95
2022-10-22T00:35:35.517Z,7.95
2022-10-22T00:39:37.455Z,7.97
2022-10-22T00:44:02.532Z,8.00
2022-10-22T00:48:08.926Z,8.05
2022-10-22T00:52:11.588Z,8.06
2022-10-22T00:56:13.875Z,8.05
2022-10-22T01:00:16.370Z,8.05
2022-10-22T01:04:19.637Z,8.07
2022-10-22T01:08:36.526Z,8.10
2022-10-22T01:13:02.855Z,8.11
2022-10-22T01:17:09.493Z,8.08
2022-10-22T01:21:32.802Z,8.05
2022-10-22T01:25:35.633Z,8.06
2022-10-22T01:29:43.396Z,8.07
2022-10-22T01:33:48.177Z,8.11
2022-10-22T01:37:57.252Z,8.15
2022-10-22T01:41:59.528Z,8.14
2022-10-22T01:46:04.205Z,8.12
2022-10-22T01:50:36.844Z,8.11
2022-10-22T01:55:01.660Z,8.14
2022-10-22T01:59:24.657Z,8.18
2022-10-22T02:03:36.796Z,8.16
2022-10-22T02:07:48.797Z,8.11
2022-10-22T02:11:52.121Z,8.13
2022-10-22T02:15:56.587Z,8.19
2022-10-22T02:20:10.547Z,8.21
2022-10-22T02:24:12.668Z,8.22
2022-10-22T02:28:36.849Z,8.20
2022-10-22T02:33:03.292Z,8.20
2022-10-22T02:37:06.639Z,8.23
2022-10-22T02:41:09.520Z,8.26
2022-10-22T02:45:11.603Z,8.27
2022-10-22T02:49:13.645Z,8.26
2022-10-22T02:53:15.503Z,8.25
2022-10-22T02:57:17.422Z,8.25
2022-10-22T03:01:19.551Z,8.30
2022-10-22T03:05:21.407Z,8.34
2022-10-22T03:09:24.842Z,8.38
2022-10-22T03:13:27.024Z,8.38
2022-10-22T03:17:28.864Z,8.39
2022-10-22T03:21:41.522Z,8.42
2022-10-22T03:25:46.585Z,8.45
2022-10-22T03:29:51.372Z,8.48
2022-10-22T03:33:53.292Z,8.46
2022-10-22T03:37:55.216Z,8.44
2022-10-22T03:41:57.528Z,8.42
2022-10-22T03:45:59.352Z,8.44
2022-10-22T03:50:01.255Z,8.48
2022-10-22T03:54:03.401Z,8.52
2022-10-22T03:58:05.427Z,8.58
2022-10-22T04:02:07.711Z,8.62
2022-10-22T04:06:12.144Z,8.64
2022-10-22T04:10:14.358Z,8.67
2022-10-22T04:14:16.246Z,8.71
2022-10-22T04:18:23.256Z,8.78
2022-10-22T04:22:25.075Z,8.83
2022-10-22T04:26:27.385Z,8.84
2022-10-22T04:30:29.217Z,8.83
2022-10-22T04:34:31.148Z,8.83
2022-10-22T04:38:33.023Z,8.83
2022-10-22T04:42:34.917Z,8.89
2022-10-22T04:46:36.870Z,8.92
2022-10-22T04:50:38.804Z,8.91
2022-10-22T04:54:44.020Z,8.87
2022-10-22T04:58:48.202Z,8.83
2022-10-22T05:02:50.844Z,8.83
2022-10-22T05:06:52.775Z,8.84
2022-10-22T05:10:55.064Z,8.80
2022-10-22T05:14:56.970Z,8.72
2022-10-22T05:19:00.862Z,8.69
2022-10-22T05:23:02.788Z,8.73
2022-10-22T05:27:08.007Z,8.81
2022-10-22T05:31:12.549Z,8.86
2022-10-22T05:35:14.512Z,8.90
2022-10-22T05:39:16.346Z,8.93
2022-10-22T05:43:18.228Z,8.94
2022-10-22T05:47:20.124Z,8.98
2022-10-22T05:51:22.409Z,9.00
2022-10-22T05:55:24.276Z,9.01
2022-10-22T05:59:26.242Z,9.07
2022-10-22T06:03:29.016Z,9.14
2022-10-22T06:07:30.952Z,9.21
2022-10-22T06:11:35.121Z,9.26
2022-10-22T06:15:37.532Z,9.31
2022-10-22T06:19:39.389Z,9.35
2022-10-22T06:23:42.496Z,9.41
2022-10-22T06:27:49.724Z,9.47
2022-10-22T06:31:51.643Z,9.48
2022-10-22T06:35:53.611Z,9.49
2022-10-22T06:39:55.569Z,9.51
2022-10-22T06:43:58.087Z,9.54
2022-10-22T06:48:00.145Z,9.60
2022-10-22T06:52:02.027Z,9.64
2022-10-22T06:56:08.534Z,9.66
2022-10-22T07:00:10.979Z,9.72
2022-10-22T07:04:12.922Z,9.80
2022-10-22T07:08:14.837Z,9.87
2022-10-22T07:12:17.009Z,9.90
2022-10-22T07:16:19.257Z,9.89
2022-10-22T07:20:21.161Z,9.88
2022-10-22T07:24:23.178Z,9.90
2022-10-22T07:28:25.201Z,9.93
2022-10-22T07:32:27.104Z,9.94
2022-10-22T07:36:29.096Z,9.97
2022-10-22T07:40:31.267Z,10.02
2022-10-22T07:44:33.579Z,10.11
2022-10-22T07:48:36.713Z,10.18
2022-10-22T07:52:38.930Z,10.24
2022-10-22T07:56:41.097Z,10.28
2022-10-22T08:00:43.377Z,10.39
2022-10-22T08:04:45.254Z,10.52
2022-10-22T08:08:47.188Z,10.65
2022-10-22T08:12:49.083Z,10.72
2022-10-22T08:16:50.968Z,10.74
2022-10-22T08:20:53.326Z,10.79
2022-10-22T08:24:55.322Z,10.93
2022-10-22T08:28:57.708Z,11.06
2022-10-22T08:32:59.700Z,11.15
2022-10-22T08:37:21.744Z,11.18
2022-10-22T08:41:29.248Z,11.20
2022-10-22T08:45:50.480Z,11.28
2022-10-22T08:49:56.583Z,11.38
2022-10-22T08:54:16.608Z,11.46
2022-10-22T08:58:19.761Z,11.54
2022-10-22T09:02:45.863Z,11.58
2022-10-22T09:06:50.835Z,11.60
2022-10-22T09:11:21.516Z,11.59
2022-10-22T09:15:23.357Z,11.63
2022-10-22T09:19:31.265Z,11.67
2022-10-22T09:23:44.712Z,11.74
2022-10-22T09:27:47.949Z,11.80
2022-10-22T09:31:49.839Z,11.84
2022-10-22T09:35:55.053Z,11.89
2022-10-22T09:40:03.192Z,11.95
2022-10-22T09:44:06.713Z,12.03
2022-10-22T09:48:18.541Z,12.02
2022-10-22T09:52:28.936Z,11.98
2022-10-22T09:56:37.160Z,11.99
2022-10-22T10:00:40.480Z,12.04
2022-10-22T10:04:53.451Z,12.08
2022-10-22T10:08:56.814Z,12.13
2022-10-22T10:13:38.962Z,12.16
2022-10-22T10:18:26.092Z,12.25
2022-10-22T10:22:53.026Z,12.35
2022-10-22T10:27:00.652Z,12.38
2022-10-22T10:31:21.236Z,12.37
2022-10-22T10:35:38.548Z,12.28
2022-10-22T10:39:49.759Z,12.21
2022-10-22T10:44:09.935Z,12.21
2022-10-22T10:48:27.483Z,12.26
2022-10-22T10:52:42.218Z,12.30
2022-10-22T10:56:55.986Z,12.28
2022-10-22T11:01:22.561Z,12.28
2022-10-22T11:05:45.793Z,12.33
2022-10-22T11:10:00.309Z,12.39
2022-10-22T11:14:11.099Z,12.43
2022-10-22T11:18:20.528Z,12.44
2022-10-22T11:22:31.656Z,12.46
2022-10-22T11:26:46.531Z,12.50
2022-10-22T11:30:57.140Z,12.54
2022-10-22T11:35:02.625Z,12.58
2022-10-22T11:39:04.728Z,12.60
2022-10-22T11:43:09.205Z,12.63
2022-10-22T11:47:23.571Z,12.69
2022-10-22T11:51:35.522Z,12.75
2022-10-22T11:55:47.642Z,12.77
2022-10-22T11:59:52.839Z,12.80
2022-10-22T12:03:57.458Z,12.79
2022-10-22T12:08:20.300Z,12.80
2022-10-22T12:12:22.843Z,12.76
2022-10-22T12:16:37.673Z,12.72
2022-10-22T12:20:53.714Z,12.66
2022-10-22T12:25:00.542Z,12.60
2022-10-22T12:29:09.938Z,12.60
2022-10-22T12:33:22.856Z,12.64
2022-10-22T12:37:24.810Z,12.66
2022-10-22T12:41:34.743Z,12.65
2022-10-22T12:45:37.944Z,12.65
2022-10-22T12:49:44.289Z,12.66
2022-10-22T12:53:50.325Z,12.69
2022-10-22T12:57:52.802Z,12.70
2022-10-22T13:01:56.357Z,12.67
2022-10-22T13:06:31.789Z,12.68
2022-10-22T13:10:36.740Z,12.71
2022-10-22T13:14:38.642Z,12.77
2022-10-22T13:18:41.263Z,12.86
2022-10-22T13:22:59.607Z,12.92
2022-10-22T13:27:01.770Z,12.95
2022-10-22T13:31:19.016Z,12.98
2022-10-22T13:35:25.020Z,13.03
2022-10-22T13:39:26.828Z,13.05
2022-10-22T13:43:28.716Z,13.08
2022-10-22T13:47:30.613Z,13.15
2022-10-22T13:51:34.660Z,13.21
2022-10-22T13:55:36.534Z,13.21
2022-10-22T13:59:38.425Z,13.18
2022-10-22T14:03:40.503Z,13.15
2022-10-22T14:07:42.654Z,13.12
2022-10-22T14:11:44.748Z,13.12
2022-10-22T14:15:49.804Z,13.11
2022-10-22T14:19:51.783Z,13.09
2022-10-22T14:23:54.079Z,13.05
2022-10-22T14:27:56.088Z,12.99
2022-10-22T14:31:57.996Z,12.97
2022-10-22T14:36:00.698Z,12.99
2022-10-22T14:40:02.731Z,13.00
2022-10-22T14:44:04.567Z,12.99
2022-10-22T14:48:06.396Z,12.95
2022-10-22T14:52:11.711Z,12.90
2022-10-22T14:56:22.409Z,12.87
2022-10-22T15:00:24.434Z,12.84
2022-10-22T15:04:27.664Z,12.82
2022-10-22T15:08:30.150Z,12.77
2022-10-22T15:12:32.100Z,12.71
2022-10-22T15:16:34.010Z,12.69
2022-10-22T15:20:35.825Z,12.71
2022-10-22T15:24:38.288Z,12.74
2022-10-22T15:28:41.557Z,12.75
2022-10-22T15:32:43.780Z,12.74
2022-10-22T15:36:46.013Z,12.69
2022-10-22T15:40:47.884Z,12.65
2022-10-22T15:44:57.517Z,12.64
2022-10-22T15:48:59.372Z,12.66
2022-10-22T15:53:01.195Z,12.68
2022-10-22T15:57:07.935Z,12.70
2022-10-22T16:01:12.566Z,12.69
2022-10-22T16:05:14.519Z,12.69
2022-10-22T16:09:19.927Z,12.71
2022-10-22T16:13:23.803Z,12.72
2022-10-22T16:17:25.630Z,12.72
2022-10-22T16:21:27.518Z,12.69
2022-10-22T16:25:29.367Z,12.67
2022-10-22T16:29:31.244Z,12.64
2022-10-22T16:33:41.377Z,12.62
2022-10-22T16:37:46.449Z,12.61
2022-10-22T16:41:48.289Z,12.58
2022-10-22T16:45:50.532Z,12.56
2022-10-22T16:49:52.317Z,12.56
2022-10-22T16:53:55.496Z,12.59
2022-10-22T16:57:57.361Z,12.61
2022-10-22T17:01:59.401Z,12.60
2022-10-22T17:06:03.693Z,12.59
2022-10-22T17:10:08.486Z,12.57
2022-10-22T17:14:10.789Z,12.57
2022-10-22T17:18:12.616Z,12.60
2022-10-22T17:22:17.689Z,12.61
2022-10-22T17:26:22.218Z,12.59
2022-10-22T17:30:27.234Z,12.53
2022-10-22T17:34:32.716Z,12.47
2022-10-22T17:38:35.061Z,12.41
2022-10-22T17:42:36.937Z,12.39
2022-10-22T17:46:39.470Z,12.40
2022-10-22T17:50:45.853Z,12.42
2022-10-22T17:54:52.721Z,12.45
2022-10-22T17:58:55.699Z,12.42
2022-10-22T18:03:00.008Z,12.41
2022-10-22T18:07:01.860Z,12.45
2022-10-22T18:11:09.018Z,12.50
2022-10-22T18:15:11.230Z,12.51
2022-10-22T18:19:19.153Z,12.50
2022-10-22T18:23:20.960Z,12.49
2022-10-22T18:27:22.830Z,12.48
2022-10-22T18:31:26.174Z,12.47
2022-10-22T18:35:31.626Z,12.48
2022-10-22T18:39:34.546Z,12.46
2022-10-22T18:43:36.831Z,12.42
2022-10-22T18:47:41.801Z,12.37
2022-10-22T18:51:44.789Z,12.34
2022-10-22T18:55:46.617Z,12.34
2022-10-22T18:59:48.648Z,12.39
2022-10-22T19:03:52.816Z,12.40
2022-10-22T19:07:54.821Z,12.39
2022-10-22T19:11:56.930Z,12.36
2022-10-22T19:16:03.349Z,12.34
2022-10-22T19:20:05.792Z,12.34
2022-10-22T19:24:07.693Z,12.35
2022-10-22T19:28:09.501Z,12.37
2022-10-22T19:32:12.860Z,12.40
2022-10-22T19:36:18.644Z,12.45
2022-10-22T19:44:30.465Z,12.47
2022-10-22T19:48:32.374Z,12.44
2022-10-22T19:52:34.185Z,12.44
2022-10-22T19:56:37.316Z,12.46
2022-10-22T20:00:39.303Z,12.50
2022-10-22T20:04:41.403Z,12.52
2022-10-22T20:08:44.245Z,12.56
2022-10-22T20:12:46.110Z,12.57
2022-10-22T20:16:48.004Z,12.58
2022-10-22T20:20:50.272Z,12.54
2022-10-22T20:24:52.177Z,12.53
2022-10-22T20:28:55.304Z,12.51
2022-10-22T20:32:58.688Z,12.50
2022-10-22T20:37:01.717Z,12.51
2022-10-22T20:41:06.161Z,12.50
2022-10-22T20:45:08.483Z,12.48
2022-10-22T20:49:14.886Z,12.48
2022-10-22T20:53:16.973Z,12.45
2022-10-22T20:57:19.142Z,12.42
2022-10-22T21:01:23.427Z,12.39
2022-10-22T21:05:25.303Z,12.36
2022-10-22T21:09:27.756Z,12.35
2022-10-22T21:13:34.083Z,12.35
2022-10-22T21:17:35.968Z,12.30
2022-10-22T21:21:37.924Z,12.28
2022-10-22T21:25:42.075Z,12.26
2022-10-22T21:29:45.916Z,12.29
2022-10-22T21:33:49.737Z,12.30
2022-10-22T21:37:51.676Z,12.26
2022-10-22T21:41:53.519Z,12.24
2022-10-22T21:46:08.722Z,12.23
2022-10-22T21:50:10.903Z,12.24
2022-10-22T21:54:12.899Z,12.24
2022-10-22T21:58:14.759Z,12.25
2022-10-22T22:02:16.680Z,12.26
2022-10-22T22:06:22.029Z,12.30
2022-10-22T22:10:26.123Z,12.40
2022-10-22T22:14:27.953Z,12.43
2022-10-22T22:18:30.064Z,12.40
2022-10-22T22:22:31.940Z,12.37
2022-10-22T22:26:34.391Z,12.34
2022-10-22T22:30:36.211Z,12.30
2022-10-22T22:34:38.024Z,12.25
2022-10-22T22:38:40.557Z,12.23
2022-10-22T22:42:42.383Z,12.24
2022-10-22T22:46:44.402Z,12.24
2022-10-22T22:50:46.196Z,12.25
2022-10-22T22:54:48.147Z,12.26
2022-10-22T22:58:50.260Z,12.27
2022-10-22T23:02:55.445Z,12.28
2022-10-22T23:06:57.456Z,12.30
2022-10-22T23:11:15.616Z,12.30
2022-10-22T23:15:17.507Z,12.32
2022-10-22T23:19:21.916Z,12.30
2022-10-22T23:23:23.729Z,12.30
2022-10-22T23:27:25.563Z,12.32
2022-10-22T23:31:27.736Z,12.33
2022-10-22T23:35:29.710Z,12.34
2022-10-22T23:39:31.586Z,12.34
2022-10-22T23:43:35.635Z,12.34
2022-10-22T23:47:37.489Z,12.34
2022-10-22T23:51:40.352Z,12.35
2022-10-22T23:55:43.652Z,12.36
2022-10-22T23:59:45.481Z,12.35
